sensor_id;sensor_type;location;lat;lon;timestamp;pressure;altitude;pressure_sealevel;temperature;humidity
82474;BME280;72098;53.276;6.116;2023-08-08T21:06:26;100962.38;;;20.87;52.95
82474;BME280;72098;53.276;6.116;2023-08-08T21:08:52;100957.41;;;20.89;52.84
82474;BME280;72098;53.276;6.116;2023-08-08T21:11:19;100959.09;;;20.90;53.08
82474;BME280;72098;53.276;6.116;2023-08-08T21:13:46;100962.72;;;20.90;53.20
82474;BME280;72098;53.276;6.116;2023-08-08T21:16:12;100969.22;;;20.91;53.17
82474;BME280;72098;53.276;6.116;2023-08-08T21:18:40;100971.13;;;20.90;52.72
82474;BME280;72098;53.276;6.116;2023-08-08T21:21:08;100969.69;;;20.88;52.60
82474;BME280;72098;53.276;6.116;2023-08-08T21:23:34;100962.63;;;20.85;53.36
82474;BME280;72098;53.276;6.116;2023-08-08T21:26:01;100956.44;;;20.83;53.38
82474;BME280;72098;53.276;6.116;2023-08-08T21:28:28;100957.78;;;20.81;52.92
82474;BME280;72098;53.276;6.116;2023-08-08T21:30:55;100967.88;;;20.82;53.31
82474;BME280;72098;53.276;6.116;2023-08-08T21:33:21;100951.31;;;20.80;53.08
82474;BME280;72098;53.276;6.116;2023-08-08T21:35:48;100966.19;;;20.81;52.83
82474;BME280;72098;53.276;6.116;2023-08-08T21:38:16;100962.78;;;20.79;52.84
82474;BME280;72098;53.276;6.116;2023-08-08T21:40:43;100971.78;;;20.81;53.12
82474;BME280;72098;53.276;6.116;2023-08-08T21:43:09;100964.47;;;20.80;53.20
82474;BME280;72098;53.276;6.116;2023-08-08T21:45:36;100966.19;;;20.81;53.15
82474;BME280;72098;53.276;6.116;2023-08-08T21:48:04;100960.59;;;20.81;53.11
82474;BME280;72098;53.276;6.116;2023-08-08T21:50:31;100961.06;;;20.78;52.78
82474;BME280;72098;53.276;6.116;2023-08-08T21:52:57;100958.88;;;20.80;53.15
82474;BME280;72098;53.276;6.116;2023-08-08T21:55:25;100970.06;;;20.80;53.49
82474;BME280;72098;53.276;6.116;2023-08-08T21:57:52;100969.47;;;20.78;53.46
82474;BME280;72098;53.276;6.116;2023-08-08T22:00:19;100968.88;;;20.76;53.57
82474;BME280;72098;53.276;6.116;2023-08-08T22:02:46;100968.59;;;20.77;53.52
82474;BME280;72098;53.276;6.116;2023-08-08T22:05:13;100972.53;;;20.76;53.76
82474;BME280;72098;53.276;6.116;2023-08-08T22:07:39;100978.13;;;20.76;53.75
82474;BME280;72098;53.276;6.116;2023-08-08T22:10:07;100980.06;;;20.76;54.01
82474;BME280;72098;53.276;6.116;2023-08-08T22:12:35;100973.00;;;20.73;54.02
82474;BME280;72098;53.276;6.116;2023-08-08T22:15:02;100969.34;;;20.72;53.97
82474;BME280;72098;53.276;6.116;2023-08-08T22:17:29;100972.75;;;20.75;53.71
82474;BME280;72098;53.276;6.116;2023-08-08T22:19:56;100974.69;;;20.74;53.72
82474;BME280;72098;53.276;6.116;2023-08-08T22:22:23;100974.94;;;20.72;53.85
82474;BME280;72098;53.276;6.116;2023-08-08T22:24:49;100967.66;;;20.71;54.25
82474;BME280;72098;53.276;6.116;2023-08-08T22:27:16;100966.81;;;20.71;54.16
82474;BME280;72098;53.276;6.116;2023-08-08T22:29:44;100972.41;;;20.71;54.30
82474;BME280;72098;53.276;6.116;2023-08-08T22:32:10;100963.16;;;20.70;54.09
82474;BME280;72098;53.276;6.116;2023-08-08T22:34:37;100959.47;;;20.70;54.16
82474;BME280;72098;53.276;6.116;2023-08-08T22:37:03;100974.59;;;20.69;54.15
82474;BME280;72098;53.276;6.116;2023-08-08T22:39:30;100970.69;;;20.70;54.18
82474;BME280;72098;53.276;6.116;2023-08-08T22:41:57;100963.16;;;20.70;54.35
82474;BME280;72098;53.276;6.116;2023-08-08T22:44:23;100964.25;;;20.69;54.22
82474;BME280;72098;53.276;6.116;2023-08-08T22:46:51;100970.09;;;20.68;54.52
82474;BME280;72098;53.276;6.116;2023-08-08T22:49:18;100961.69;;;20.68;54.45
82474;BME280;72098;53.276;6.116;2023-08-08T22:51:44;100962.56;;;20.68;54.17
82474;BME280;72098;53.276;6.116;2023-08-08T22:54:11;100960.81;;;20.67;54.30
82474;BME280;72098;53.276;6.116;2023-08-08T22:56:38;100957.69;;;20.64;54.35
82474;BME280;72098;53.276;6.116;2023-08-08T22:59:06;100962.16;;;20.65;54.41
82474;BME280;72098;53.276;6.116;2023-08-08T23:01:33;100973.38;;;20.65;54.67
82474;BME280;72098;53.276;6.116;2023-08-08T23:04:00;100964.38;;;20.63;54.54
82474;BME280;72098;53.276;6.116;2023-08-08T23:06:27;100967.41;;;20.61;54.74
82474;BME280;72098;53.276;6.116;2023-08-08T23:08:54;100963.16;;;20.59;54.53
82474;BME280;72098;53.276;6.116;2023-08-08T23:11:20;100962.06;;;20.60;54.66
82474;BME280;72098;53.276;6.116;2023-08-08T23:13:48;100959.25;;;20.60;54.53
82474;BME280;72098;53.276;6.116;2023-08-08T23:16:14;100967.41;;;20.61;54.70
82474;BME280;72098;53.276;6.116;2023-08-08T23:18:41;100960.63;;;20.57;54.83
82474;BME280;72098;53.276;6.116;2023-08-08T23:21:09;100954.41;;;20.55;54.74
82474;BME280;72098;53.276;6.116;2023-08-08T23:23:35;100961.09;;;20.54;54.76
82474;BME280;72098;53.276;6.116;2023-08-08T23:26:02;100956.81;;;20.51;54.92
82474;BME280;72098;53.276;6.116;2023-08-08T23:28:29;100963.72;;;20.49;55.00
82474;BME280;72098;53.276;6.116;2023-08-08T23:30:55;100962.28;;;20.46;54.88
82474;BME280;72098;53.276;6.116;2023-08-08T23:33:22;100967.88;;;20.46;54.96
82474;BME280;72098;53.276;6.116;2023-08-08T23:35:50;100960.34;;;20.47;55.04
82474;BME280;72098;53.276;6.116;2023-08-08T23:38:17;100962.53;;;20.45;54.76
82474;BME280;72098;53.276;6.116;2023-08-08T23:40:44;100962.28;;;20.46;54.90
82474;BME280;72098;53.276;6.116;2023-08-08T23:43:11;100962.78;;;20.43;54.93
82474;BME280;72098;53.276;6.116;2023-08-08T23:45:37;100957.44;;;20.42;55.01
82474;BME280;72098;53.276;6.116;2023-08-08T23:48:04;100958.50;;;20.41;55.29
82474;BME280;72098;53.276;6.116;2023-08-08T23:50:31;100962.41;;;20.40;55.00
82474;BME280;72098;53.276;6.116;2023-08-08T23:52:57;100970.19;;;20.38;55.02
82474;BME280;72098;53.276;6.116;2023-08-08T23:55:25;100971.31;;;20.37;55.31
82474;BME280;72098;53.276;6.116;2023-08-08T23:57:52;100968.50;;;20.37;55.19
